Federal Kumano — VRYL4 — position and weather

sailwx.info

Track history (hours):
 
Tides and Currents Weather Stations Pressure Air Temp Water Temp Dewpoint Dewpoint Depression Visibility Wind Speed Wind Dir Waves Ship Positions

Federal Kumano

Last reported at 2014-Sep-21 19:33 UTC. Time now 2014-Oct-01 08:23 UTC.
Position N 46°36' W 071°59'.
Warning: this ship's position is 9 days out of date.

Length 200 m; draft 6.2 m.

Type: Cargo ship. MMSI: 477284000.

Date/timePositionNaut miles runAvg speedWind from/ knotsBaromVisibWave heightAir tempDewpointWater temp
2014-Sep-21 19:33N 46°36' W 071°59'1414.3
2014-Sep-21 18:33N 46°27' W 072°15'1413.7
2014-Sep-21 17:33N 46°20' W 072°32'1211.8
2014-Sep-21 16:33N 46°14' W 072°47'1412.7
2014-Sep-21 15:25N 46°04' W 073°02'1011.8
2014-Sep-21 14:34N 45°57' W 073°13'1313.4
2014-Sep-21 13:33N 45°46' W 073°23'1312.8
2014-Sep-21 12:33N 45°34' W 073°31'1 0.7
2014-Sep-21 11:32N 45°35' W 073°30'0 0.0
2014-Sep-21 10:32N 45°35' W 073°30'0 0.0
2014-Sep-21 09:32N 45°35' W 073°30'0 0.0
2014-Sep-21 08:32N 45°35' W 073°30'0 0.0
2014-Sep-21 07:29N 45°35' W 073°30'0 0.0
2014-Sep-21 06:26N 45°35' W 073°30'0 0.0
2014-Sep-21 05:29N 45°35' W 073°30'0 0.0
2014-Sep-21 04:32N 45°35' W 073°30'0 0.0
2014-Sep-21 03:32N 45°35' W 073°30'0 0.0
2014-Sep-21 02:33N 45°35' W 073°30'5 4.6
2014-Sep-21 01:33N 45°30' W 073°31'1 1.0
2014-Sep-21 00:33N 45°29' W 073°31'5 4.5
2014-Sep-20 23:33N 45°25' W 073°31'3 3.2
2014-Sep-20 22:33N 45°24' W 073°36'7 7.3
2014-Sep-20 21:33N 45°24' W 073°46'8 8.3
2014-Sep-20 20:34N 45°19' W 073°55'1 1.2
2014-Sep-20 19:34N 45°18' W 073°56'8 7.8
2014-Sep-20 18:33N 45°13' W 074°05'1110.9
2014-Sep-20 17:33N 45°11' W 074°20'92 8.1
2014-Sep-20 06:09N 44°16' W 076°04'712.4
2014-Sep-20 05:33N 44°12' W 076°13'1110.9
2014-Sep-20 04:33N 44°05' W 076°25'1514.1
2014-Sep-20 03:28N 43°53' W 076°37'  
2014-Sep-12 10:09N 43°59' W 076°35'813.0
2014-Sep-12 09:33N 44°03' W 076°26'1010.3
2014-Sep-12 08:33N 44°12' W 076°18'1111.3
2014-Sep-12 07:33N 44°16' W 076°04'  
Track history (hours):
 
Tides and Currents Weather Stations Pressure Air Temp Water Temp Dewpoint Dewpoint Depression Visibility Wind Speed Wind Dir Waves Ship Positions

Federal Kumano

Last reported at 2014-Sep-21 19:33 UTC. Time now 2014-Oct-01 08:23 UTC.
Position N 46°36' W 071°59'.
Warning: this ship's position is 9 days out of date.

Length 200 m; draft 6.2 m.

Type: Cargo ship. MMSI: 477284000.

Date/timePositionNaut miles runAvg speedWind from/ knotsBaromVisibWave heightAir tempDewpointWater temp
2014-Sep-21 19:33N 46°36' W 071°59'1414.3
2014-Sep-21 18:33N 46°27' W 072°15'1413.7
2014-Sep-21 17:33N 46°20' W 072°32'1211.8
2014-Sep-21 16:33N 46°14' W 072°47'1412.7
2014-Sep-21 15:25N 46°04' W 073°02'1011.8
2014-Sep-21 14:34N 45°57' W 073°13'1313.4
2014-Sep-21 13:33N 45°46' W 073°23'1312.8
2014-Sep-21 12:33N 45°34' W 073°31'1 0.7
2014-Sep-21 11:32N 45°35' W 073°30'0 0.0
2014-Sep-21 10:32N 45°35' W 073°30'0 0.0
2014-Sep-21 09:32N 45°35' W 073°30'0 0.0
2014-Sep-21 08:32N 45°35' W 073°30'0 0.0
2014-Sep-21 07:29N 45°35' W 073°30'0 0.0
2014-Sep-21 06:26N 45°35' W 073°30'0 0.0
2014-Sep-21 05:29N 45°35' W 073°30'0 0.0
2014-Sep-21 04:32N 45°35' W 073°30'0 0.0
2014-Sep-21 03:32N 45°35' W 073°30'0 0.0
2014-Sep-21 02:33N 45°35' W 073°30'5 4.6
2014-Sep-21 01:33N 45°30' W 073°31'1 1.0
2014-Sep-21 00:33N 45°29' W 073°31'5 4.5
2014-Sep-20 23:33N 45°25' W 073°31'3 3.2
2014-Sep-20 22:33N 45°24' W 073°36'7 7.3
2014-Sep-20 21:33N 45°24' W 073°46'8 8.3
2014-Sep-20 20:34N 45°19' W 073°55'1 1.2
2014-Sep-20 19:34N 45°18' W 073°56'8 7.8
2014-Sep-20 18:33N 45°13' W 074°05'1110.9
2014-Sep-20 17:33N 45°11' W 074°20'92 8.1
2014-Sep-20 06:09N 44°16' W 076°04'712.4
2014-Sep-20 05:33N 44°12' W 076°13'1110.9
2014-Sep-20 04:33N 44°05' W 076°25'1514.1
2014-Sep-20 03:28N 43°53' W 076°37'  
2014-Sep-12 10:09N 43°59' W 076°35'813.0
2014-Sep-12 09:33N 44°03' W 076°26'1010.3
2014-Sep-12 08:33N 44°12' W 076°18'1111.3
2014-Sep-12 07:33N 44°16' W 076°04'  

Dump ship's entire track history